Ulianopolis, Brazil
Current Conditions -  °F | °C
As of 6:00 AM on Wednesday 22 Oct 2014 (Local Time) from SBIZ Reporting Station
Thunderstorm Thunderstorm  
Wind Chill: 75°   Ceiling: 2500
Heat Index: 75°   Visibility: 4mi
Dew Point: 73°   Wind: 2mph
Humidity: 94%   Direction: 20°NNE
Pressure: 29.88"   Gusts: NA
Location:  3.74°S, 47.49°W
Report Text: SBIZ 220900Z 02002KT 6000 TS OVC025 SCT///CB 24/23 Q1012
Loading
Personal Weather Stations






























Interactive Weather Map New forecast layout! Learn more

10-Day Weather Forecast

Advertisements
Track Severe Weather on mobile